Time;durP1;ratioP1;P1;durP2;ratioP2;P2;SDS_P1;SDS_P2;PMS_P1;PMS_P2;Temp;Humidity;BMP_temperature;BMP_pressure;BME280_temperature;BME280_humidity;BME280_pressure;Samples;Min_cycle;Max_cycle;Signal;HPM_P1;HPM_P2
2022/01/14 00:00:34;;;;;;;0.17;0.10;;;;;;;;;;4197163;28;20044;-38
2022/01/14 00:02:35;;;;;;;0.35;0.20;;;;;;;;;;4197044;28;20204;-39
2022/01/14 00:04:37;;;;;;;1.33;0.30;;;;;;;;;;4197096;28;20083;-36
2022/01/14 00:06:38;;;;;;;0.52;0.20;;;;;;;;;;4197263;28;20098;-37
2022/01/14 00:08:39;;;;;;;0.82;0.20;;;;;;;;;;4197010;28;20107;-37
2022/01/14 00:10:47;;;;;;;0.30;0.10;;;;;;;;;;4197309;28;20504;-38
2022/01/14 00:12:53;;;;;;;0.52;0.10;;;;;;;;;;4197260;28;20048;-35
2022/01/14 00:15:22;;;;;;;0.52;0.10;;;;;;;;;;4197027;28;20381;-38
2022/01/14 00:17:18;;;;;;;0.77;0.38;;;;;;;;;;4196753;28;20481;-37
2022/01/14 00:19:19;;;;;;;0.50;0.22;;;;;;;;;;4196980;28;20091;-34
2022/01/14 00:21:20;;;;;;;0.20;0.20;;;;;;;;;;4196949;28;20057;-40
2022/01/14 00:23:29;;;;;;;0.73;0.20;;;;;;;;;;4196269;28;20510;-40
2022/01/14 00:34:17;;;;;;;0.50;0.30;;;;;;;;;;4196818;28;20059;-36
2022/01/14 00:36:18;;;;;;;0.73;0.17;;;;;;;;;;4196789;28;20048;-38
2022/01/14 00:38:19;;;;;;;0.43;0.20;;;;;;;;;;4196005;28;20053;-41
2022/01/14 00:40:20;;;;;;;0.73;0.25;;;;;;;;;;4196632;28;20071;-38
2022/01/14 00:42:21;;;;;;;0.68;0.20;;;;;;;;;;4196615;28;20049;-36
2022/01/14 00:44:22;;;;;;;0.88;0.20;;;;;;;;;;4196669;28;20052;-35
2022/01/14 00:46:23;;;;;;;0.93;0.20;;;;;;;;;;4198598;28;20053;-37
2022/01/14 00:48:25;;;;;;;0.25;0.20;;;;;;;;;;4198484;28;20044;-41
2022/01/14 00:50:25;;;;;;;1.02;0.30;;;;;;;;;;4198852;28;20162;-37
2022/01/14 00:52:26;;;;;;;1.00;0.30;;;;;;;;;;4199219;28;20048;-37
2022/01/14 00:54:27;;;;;;;0.35;0.17;;;;;;;;;;4199689;28;20487;-39
2022/01/14 00:56:44;;;;;;;1.27;0.30;;;;;;;;;;4198549;28;20052;-38
2022/01/14 01:01:04;;;;;;;0.65;0.10;;;;;;;;;;4199657;28;20385;-36
2022/01/14 01:03:05;;;;;;;0.40;0.10;;;;;;;;;;4199723;28;20041;-38
2022/01/14 01:05:07;;;;;;;0.13;0.10;;;;;;;;;;4199606;28;20209;-36
2022/01/14 01:07:09;;;;;;;0.88;0.38;;;;;;;;;;4199178;28;20048;-35
2022/01/14 01:09:11;;;;;;;0.30;0.17;;;;;;;;;;4199475;28;20052;-40
2022/01/14 01:11:12;;;;;;;0.63;0.13;;;;;;;;;;4199478;28;20040;-37
2022/01/14 01:13:31;;;;;;;0.95;0.20;;;;;;;;;;4199586;28;20086;-38
2022/01/14 01:15:32;;;;;;;0.47;0.20;;;;;;;;;;4199411;28;20045;-38
2022/01/14 01:17:34;;;;;;;0.50;0.20;;;;;;;;;;4199479;28;20048;-38
2022/01/14 01:19:35;;;;;;;0.52;0.20;;;;;;;;;;4199285;28;20488;-40
2022/01/14 01:21:36;;;;;;;1.02;0.28;;;;;;;;;;4199564;28;20094;-34
2022/01/14 01:23:37;;;;;;;1.67;0.20;;;;;;;;;;4198537;28;20057;-36
2022/01/14 01:25:56;;;;;;;0.93;0.22;;;;;;;;;;4198123;28;20052;-37
2022/01/14 01:27:57;;;;;;;0.57;0.25;;;;;;;;;;4199342;28;20048;-38
2022/01/14 01:30:13;;;;;;;1.13;0.30;;;;;;;;;;4199348;28;20050;-35
2022/01/14 01:32:14;;;;;;;0.35;0.20;;;;;;;;;;4199332;28;20056;-36
2022/01/14 01:34:19;;;;;;;0.50;0.20;;;;;;;;;;4199140;28;20091;-39
2022/01/14 01:36:20;;;;;;;0.90;0.25;;;;;;;;;;4199128;28;20072;-41
2022/01/14 01:38:21;;;;;;;0.57;0.28;;;;;;;;;;4198238;28;20056;-37
2022/01/14 01:40:23;;;;;;;0.82;0.20;;;;;;;;;;4199324;28;20049;-37
2022/01/14 01:42:28;;;;;;;1.13;0.32;;;;;;;;;;4198876;28;20044;-38
2022/01/14 01:44:29;;;;;;;0.47;0.20;;;;;;;;;;4199208;28;20102;-35
2022/01/14 01:46:31;;;;;;;1.60;0.40;;;;;;;;;;4199020;28;20471;-39
2022/01/14 01:48:32;;;;;;;1.55;0.28;;;;;;;;;;4199036;28;20144;-36
2022/01/14 01:50:36;;;;;;;1.40;0.35;;;;;;;;;;4198934;28;20140;-37
2022/01/14 01:52:37;;;;;;;0.60;0.20;;;;;;;;;;4198297;28;20068;-41
2022/01/14 01:54:38;;;;;;;0.22;0.10;;;;;;;;;;4198793;28;20488;-37
2022/01/14 01:56:39;;;;;;;0.50;0.20;;;;;;;;;;4198805;28;20064;-36
2022/01/14 01:58:40;;;;;;;0.93;0.28;;;;;;;;;;4198103;28;20412;-37
2022/01/14 02:00:42;;;;;;;1.27;0.30;;;;;;;;;;4199015;28;20044;-39
2022/01/14 02:02:43;;;;;;;1.23;0.30;;;;;;;;;;4198958;28;20190;-38
2022/01/14 02:04:44;;;;;;;0.85;0.13;;;;;;;;;;4198797;28;20537;-40
2022/01/14 02:06:45;;;;;;;1.67;0.20;;;;;;;;;;4198142;28;20091;-39
2022/01/14 02:08:47;;;;;;;0.63;0.22;;;;;;;;;;4198879;28;20048;-40
2022/01/14 02:10:47;;;;;;;1.92;0.35;;;;;;;;;;4198808;28;20119;-40
2022/01/14 02:12:51;;;;;;;0.60;0.15;;;;;;;;;;4198728;28;20463;-36
2022/01/14 02:23:34;;;;;;;0.35;0.20;;;;;;;;;;4197725;28;20121;-40
2022/01/14 02:25:36;;;;;;;0.55;0.20;;;;;;;;;;4197129;28;20049;-37
2022/01/14 02:27:37;;;;;;;0.32;0.10;;;;;;;;;;4196897;28;20457;-40
2022/01/14 02:29:38;;;;;;;1.05;0.30;;;;;;;;;;4198417;28;20048;-38
2022/01/14 02:31:39;;;;;;;0.75;0.28;;;;;;;;;;4198142;28;20060;-39
2022/01/14 02:33:40;;;;;;;0.80;0.25;;;;;;;;;;4197225;28;20082;-40
2022/01/14 02:35:43;;;;;;;0.57;0.20;;;;;;;;;;4198169;28;20480;-39
2022/01/14 02:37:44;;;;;;;1.08;0.20;;;;;;;;;;4180219;28;20055;-36
2022/01/14 02:39:46;;;;;;;0.50;0.17;;;;;;;;;;4198187;28;20052;-36
2022/01/14 02:41:49;;;;;;;0.88;0.20;;;;;;;;;;4180135;28;20045;-37
2022/01/14 02:43:50;;;;;;;0.80;0.20;;;;;;;;;;4198026;28;20052;-36
2022/01/14 02:45:53;;;;;;;0.70;0.30;;;;;;;;;;4197837;28;20537;-39
2022/01/14 02:47:54;;;;;;;0.88;0.30;;;;;;;;;;4197729;28;20450;-38
2022/01/14 02:49:55;;;;;;;0.35;0.10;;;;;;;;;;4197948;28;20091;-38
2022/01/14 02:51:57;;;;;;;0.65;0.30;;;;;;;;;;4197419;28;20052;-38
2022/01/14 02:54:11;;;;;;;0.30;0.20;;;;;;;;;;4198137;28;20049;-37
2022/01/14 02:56:15;;;;;;;0.15;0.10;;;;;;;;;;4197942;28;20393;-37
2022/01/14 02:58:16;;;;;;;0.90;0.43;;;;;;;;;;4196302;28;20373;-37
2022/01/14 03:00:18;;;;;;;0.80;0.20;;;;;;;;;;4197735;28;20378;-38
2022/01/14 03:02:20;;;;;;;0.63;0.20;;;;;;;;;;4197911;28;20048;-36
2022/01/14 03:04:21;;;;;;;0.30;0.20;;;;;;;;;;4197533;28;20565;-40
2022/01/14 03:06:22;;;;;;;0.85;0.10;;;;;;;;;;4197941;28;20044;-36
2022/01/14 03:08:24;;;;;;;1.20;0.20;;;;;;;;;;4197192;28;20385;-39
2022/01/14 03:10:25;;;;;;;0.43;0.20;;;;;;;;;;4196269;28;20098;-37
2022/01/14 03:12:26;;;;;;;1.30;0.28;;;;;;;;;;4197816;28;20052;-36
2022/01/14 03:14:27;;;;;;;0.40;0.17;;;;;;;;;;4197843;28;20184;-35
2022/01/14 03:16:29;;;;;;;0.40;0.15;;;;;;;;;;4197665;28;20095;-38
2022/01/14 03:18:44;;;;;;;0.38;0.17;;;;;;;;;;4197310;28;20413;-39
2022/01/14 03:20:50;;;;;;;0.10;0.10;;;;;;;;;;4197489;28;20048;-36
2022/01/14 03:23:03;;;;;;;1.02;0.20;;;;;;;;;;4196690;28;20056;-38
2022/01/14 03:27:24;;;;;;;0.80;0.25;;;;;;;;;;4197299;28;20382;-36
2022/01/14 03:29:25;;;;;;;0.68;0.20;;;;;;;;;;4196969;28;20178;-40
2022/01/14 03:31:26;;;;;;;0.50;0.30;;;;;;;;;;4196811;28;20053;-40
2022/01/14 03:33:27;;;;;;;0.75;0.20;;;;;;;;;;4196933;28;20131;-38
2022/01/14 03:35:29;;;;;;;0.65;0.13;;;;;;;;;;4196924;28;20053;-38
2022/01/14 03:37:30;;;;;;;0.52;0.20;;;;;;;;;;4196412;28;20056;-41
2022/01/14 03:39:31;;;;;;;0.20;0.10;;;;;;;;;;4196841;28;20067;-38
2022/01/14 03:41:32;;;;;;;0.20;0.20;;;;;;;;;;4196970;28;20482;-38
2022/01/14 03:43:35;;;;;;;0.80;0.20;;;;;;;;;;4196775;28;20382;-40
2022/01/14 03:45:38;;;;;;;0.55;0.10;;;;;;;;;;4196867;28;20045;-37
2022/01/14 03:47:39;;;;;;;0.45;0.20;;;;;;;;;;4196118;28;20052;-35
2022/01/14 03:49:41;;;;;;;0.75;0.30;;;;;;;;;;4196829;28;20056;-37
2022/01/14 03:51:42;;;;;;;0.40;0.10;;;;;;;;;;4196690;28;20048;-41
2022/01/14 03:53:45;;;;;;;1.02;0.20;;;;;;;;;;4196825;28;20048;-37
2022/01/14 03:55:46;;;;;;;0.10;0.10;;;;;;;;;;4196777;28;20052;-36
2022/01/14 03:57:47;;;;;;;0.40;0.10;;;;;;;;;;4195470;28;20095;-38
2022/01/14 03:59:48;;;;;;;0.35;0.15;;;;;;;;;;4196761;28;20044;-39
2022/01/14 04:01:49;;;;;;;0.20;0.10;;;;;;;;;;4196846;28;20179;-39
2022/01/14 04:03:50;;;;;;;0.22;0.10;;;;;;;;;;4197017;28;20407;-40
2022/01/14 04:05:51;;;;;;;0.20;0.17;;;;;;;;;;4197412;28;20049;-38
2022/01/14 04:07:52;;;;;;;0.20;0.10;;;;;;;;;;4196497;28;20448;-39
2022/01/14 04:09:53;;;;;;;0.52;0.22;;;;;;;;;;4196891;28;20049;-37
2022/01/14 04:11:54;;;;;;;0.00;0.00;;;;;;;;;;4179060;28;20135;-38
2022/01/14 04:14:06;;;;;;;0.30;0.10;;;;;;;;;;4197265;28;20059;-36
2022/01/14 04:16:06;;;;;;;0.47;0.20;;;;;;;;;;4197046;28;20052;-38
2022/01/14 04:18:09;;;;;;;0.75;0.10;;;;;;;;;;4196768;28;20495;-35
2022/01/14 04:20:10;;;;;;;0.65;0.38;;;;;;;;;;4195670;28;20052;-39
2022/01/14 04:22:11;;;;;;;0.40;0.03;;;;;;;;;;4199660;28;20488;-37
2022/01/14 04:24:12;;;;;;;0.17;0.10;;;;;;;;;;4200182;28;20101;-34
2022/01/14 04:26:13;;;;;;;0.55;0.10;;;;;;;;;;4200506;28;20606;-36
2022/01/14 04:28:14;;;;;;;0.15;0.10;;;;;;;;;;4200284;28;20102;-39
2022/01/14 04:30:15;;;;;;;0.22;0.10;;;;;;;;;;4200056;28;20334;-40
2022/01/14 04:32:17;;;;;;;0.60;0.20;;;;;;;;;;4199855;28;20381;-39
2022/01/14 04:34:17;;;;;;;0.20;0.20;;;;;;;;;;4200140;28;20091;-36
2022/01/14 04:36:19;;;;;;;0.60;0.30;;;;;;;;;;4200268;28;20091;-36
2022/01/14 04:38:20;;;;;;;0.20;0.10;;;;;;;;;;4199236;28;20052;-40
2022/01/14 04:40:21;;;;;;;0.60;0.20;;;;;;;;;;4199852;28;20493;-37
2022/01/14 04:42:23;;;;;;;0.52;0.20;;;;;;;;;;4199812;28;20048;-37
2022/01/14 04:44:24;;;;;;;0.10;0.10;;;;;;;;;;4199898;28;20052;-38
2022/01/14 04:48:41;;;;;;;0.10;0.10;;;;;;;;;;4199812;28;20385;-36
2022/01/14 04:50:43;;;;;;;0.38;0.10;;;;;;;;;;4199975;28;20048;-39
2022/01/14 04:52:46;;;;;;;0.20;0.10;;;;;;;;;;4199306;28;20044;-35
2022/01/14 04:54:46;;;;;;;0.10;0.10;;;;;;;;;;4199747;28;20447;-37
2022/01/14 04:56:47;;;;;;;0.80;0.20;;;;;;;;;;4198329;28;20083;-39
2022/01/14 04:58:48;;;;;;;0.30;0.08;;;;;;;;;;4199834;28;20052;-38
2022/01/14 05:00:49;;;;;;;0.57;0.13;;;;;;;;;;4199594;28;20071;-35
2022/01/14 05:02:54;;;;;;;0.30;0.10;;;;;;;;;;4199724;28;20060;-37
2022/01/14 05:04:58;;;;;;;0.10;0.10;;;;;;;;;;4199567;28;20049;-37
2022/01/14 05:07:02;;;;;;;0.60;0.10;;;;;;;;;;4198978;28;20048;-36
2022/01/14 05:09:15;;;;;;;0.20;0.10;;;;;;;;;;4199019;28;20124;-39
2022/01/14 05:13:20;;;;;;;0.17;0.10;;;;;;;;;;4199284;28;20480;-38
2022/01/14 05:15:21;;;;;;;0.30;0.10;;;;;;;;;;4198998;28;20069;-39
2022/01/14 05:17:22;;;;;;;0.20;0.08;;;;;;;;;;4198965;28;20378;-36
2022/01/14 05:19:23;;;;;;;0.10;0.10;;;;;;;;;;4198984;28;20052;-37
2022/01/14 05:21:24;;;;;;;0.88;0.10;;;;;;;;;;4199110;28;20103;-39
2022/01/14 05:23:25;;;;;;;0.20;0.10;;;;;;;;;;4198207;28;20095;-38
2022/01/14 05:25:26;;;;;;;0.15;0.10;;;;;;;;;;4199037;28;20091;-38
2022/01/14 05:27:27;;;;;;;0.20;0.10;;;;;;;;;;4198806;28;20052;-38
2022/01/14 05:29:28;;;;;;;0.15;0.10;;;;;;;;;;4198996;28;20059;-35
2022/01/14 05:31:41;;;;;;;0.52;0.10;;;;;;;;;;4199029;28;20056;-37
2022/01/14 05:33:46;;;;;;;0.65;0.20;;;;;;;;;;4197720;28;20056;-37
2022/01/14 05:35:47;;;;;;;0.40;0.10;;;;;;;;;;4198602;28;20052;-37
2022/01/14 05:37:48;;;;;;;0.28;0.10;;;;;;;;;;4196968;28;20095;-40
2022/01/14 05:39:49;;;;;;;0.13;0.10;;;;;;;;;;4198660;28;20056;-40
2022/01/14 05:41:50;;;;;;;0.10;0.10;;;;;;;;;;4196778;28;20099;-40
2022/01/14 05:43:51;;;;;;;1.25;0.20;;;;;;;;;;4182148;28;20053;-35
2022/01/14 05:45:52;;;;;;;0.10;0.03;;;;;;;;;;4182162;28;20075;-37
2022/01/14 05:47:53;;;;;;;0.30;0.20;;;;;;;;;;4187721;28;20138;-38
2022/01/14 05:49:54;;;;;;;0.40;0.10;;;;;;;;;;4198954;28;20052;-39
2022/01/14 05:51:55;;;;;;;0.28;0.10;;;;;;;;;;4197848;28;20106;-40
2022/01/14 05:53:56;;;;;;;0.70;0.10;;;;;;;;;;4199047;28;20052;-40
2022/01/14 05:55:57;;;;;;;0.45;0.10;;;;;;;;;;4196451;28;20049;-38
2022/01/14 05:57:58;;;;;;;0.20;0.15;;;;;;;;;;4187964;28;20178;-38
2022/01/14 05:59:59;;;;;;;0.05;0.05;;;;;;;;;;4188159;28;20041;-38
2022/01/14 06:02:00;;;;;;;0.50;0.03;;;;;;;;;;4184259;28;20079;-41
2022/01/14 06:04:02;;;;;;;0.22;0.13;;;;;;;;;;4189158;28;20053;-40
2022/01/14 06:06:03;;;;;;;0.08;0.03;;;;;;;;;;4192495;28;20372;-39
2022/01/14 06:08:05;;;;;;;0.40;0.10;;;;;;;;;;4181343;28;20183;-38
2022/01/14 06:10:06;;;;;;;0.10;0.00;;;;;;;;;;4180278;28;20049;-39
2022/01/14 06:12:08;;;;;;;0.10;0.10;;;;;;;;;;4179734;28;20098;-38
2022/01/14 06:14:09;;;;;;;0.13;0.10;;;;;;;;;;4180365;28;20056;-38
2022/01/14 06:16:10;;;;;;;0.43;0.10;;;;;;;;;;4180093;28;20401;-39
2022/01/14 06:18:11;;;;;;;0.10;0.10;;;;;;;;;;4179814;28;20057;-41
2022/01/14 06:20:12;;;;;;;0.03;0.03;;;;;;;;;;4179866;28;20075;-38
2022/01/14 06:22:13;;;;;;;0.10;0.10;;;;;;;;;;4179396;28;20053;-37
2022/01/14 06:24:14;;;;;;;0.75;0.10;;;;;;;;;;4179531;28;20436;-36
2022/01/14 06:26:15;;;;;;;0.00;0.00;;;;;;;;;;4178437;28;20049;-38
2022/01/14 06:28:16;;;;;;;0.22;0.17;;;;;;;;;;4181630;28;20048;-36
2022/01/14 06:30:17;;;;;;;2.75;0.57;;;;;;;;;;4184663;28;20163;-39
2022/01/14 06:32:18;;;;;;;0.57;0.15;;;;;;;;;;4195377;28;20114;-39
2022/01/14 06:34:19;;;;;;;0.40;0.15;;;;;;;;;;4188453;28;20469;-40
2022/01/14 06:36:20;;;;;;;0.32;0.10;;;;;;;;;;4193551;28;20049;-41
2022/01/14 06:38:21;;;;;;;0.10;0.08;;;;;;;;;;4179239;28;20103;-37
2022/01/14 06:40:22;;;;;;;0.30;0.13;;;;;;;;;;4179829;28;20535;-37
2022/01/14 06:42:23;;;;;;;0.38;0.10;;;;;;;;;;4185103;28;20415;-37
2022/01/14 06:44:24;;;;;;;1.85;0.20;;;;;;;;;;4186377;28;20048;-37
2022/01/14 06:46:25;;;;;;;0.10;0.05;;;;;;;;;;4187055;28;20509;-37
2022/01/14 06:48:26;;;;;;;0.47;0.10;;;;;;;;;;4187127;28;20045;-36
2022/01/14 06:50:27;;;;;;;0.20;0.10;;;;;;;;;;4185411;28;20532;-36
2022/01/14 06:52:28;;;;;;;0.38;0.10;;;;;;;;;;4181120;28;20044;-34
2022/01/14 06:54:29;;;;;;;0.20;0.10;;;;;;;;;;4187459;28;20190;-35
2022/01/14 06:56:30;;;;;;;0.10;0.10;;;;;;;;;;4179329;28;20052;-38
2022/01/14 06:58:31;;;;;;;0.25;0.10;;;;;;;;;;4177743;28;20148;-36
2022/01/14 07:00:33;;;;;;;0.47;0.10;;;;;;;;;;4178838;28;20105;-39
2022/01/14 07:02:34;;;;;;;0.75;0.10;;;;;;;;;;4179449;28;20048;-37
2022/01/14 07:04:36;;;;;;;0.13;0.00;;;;;;;;;;4178146;28;20103;-34
2022/01/14 07:06:36;;;;;;;0.68;0.13;;;;;;;;;;4178986;28;20049;-35
2022/01/14 07:08:38;;;;;;;0.20;0.10;;;;;;;;;;4178594;28;20495;-40
2022/01/14 07:10:40;;;;;;;0.28;0.10;;;;;;;;;;4179957;28;20057;-40
2022/01/14 07:12:41;;;;;;;0.10;0.10;;;;;;;;;;4177167;28;20662;-40
2022/01/14 07:14:42;;;;;;;1.15;0.20;;;;;;;;;;4190863;28;20125;-39
2022/01/14 07:16:43;;;;;;;0.40;0.10;;;;;;;;;;4191207;28;20056;-38
2022/01/14 07:18:47;;;;;;;0.65;0.10;;;;;;;;;;4166624;28;20061;-41
2022/01/14 07:20:48;;;;;;;0.47;0.10;;;;;;;;;;4181213;28;20488;-40
2022/01/14 07:22:50;;;;;;;0.35;0.20;;;;;;;;;;4188665;28;20106;-39
2022/01/14 07:24:50;;;;;;;0.65;0.30;;;;;;;;;;4189199;28;20052;-41
2022/01/14 07:26:51;;;;;;;0.25;0.00;;;;;;;;;;4189204;28;20140;-42
2022/01/14 07:28:52;;;;;;;0.63;0.20;;;;;;;;;;4189102;28;20109;-39
2022/01/14 07:30:53;;;;;;;0.80;0.20;;;;;;;;;;4181787;28;20058;-40
2022/01/14 07:32:54;;;;;;;0.70;0.17;;;;;;;;;;4181558;28;20573;-39
2022/01/14 07:34:55;;;;;;;0.20;0.20;;;;;;;;;;4184875;28;20506;-39
2022/01/14 07:36:56;;;;;;;0.50;0.20;;;;;;;;;;4185947;28;20843;-41
2022/01/14 07:38:57;;;;;;;0.25;0.10;;;;;;;;;;4188528;28;21285;-39
2022/01/14 07:40:58;;;;;;;0.30;0.10;;;;;;;;;;4190941;28;20090;-41
2022/01/14 07:42:59;;;;;;;0.70;0.10;;;;;;;;;;4184359;28;20044;-40
2022/01/14 07:45:01;;;;;;;1.55;0.10;;;;;;;;;;4187589;28;20056;-41
2022/01/14 07:47:02;;;;;;;0.20;0.10;;;;;;;;;;4186833;28;20508;-38
2022/01/14 07:49:03;;;;;;;2.05;0.10;;;;;;;;;;4190490;28;20082;-38
2022/01/14 07:51:04;;;;;;;0.17;0.10;;;;;;;;;;4189193;28;20061;-41
2022/01/14 07:53:05;;;;;;;0.38;0.17;;;;;;;;;;4190985;28;20059;-38
2022/01/14 07:55:06;;;;;;;0.88;0.10;;;;;;;;;;4189598;28;20048;-39
2022/01/14 07:57:08;;;;;;;0.20;0.13;;;;;;;;;;4188325;28;20099;-40
2022/01/14 07:59:09;;;;;;;0.10;0.10;;;;;;;;;;4189365;28;20088;-39
2022/01/14 08:01:10;;;;;;;0.85;0.10;;;;;;;;;;4187928;28;20370;-41
2022/01/14 08:03:11;;;;;;;0.80;0.10;;;;;;;;;;4185044;28;20437;-42
2022/01/14 08:05:13;;;;;;;0.20;0.10;;;;;;;;;;4190854;28;20053;-41
2022/01/14 08:07:17;;;;;;;0.60;0.20;;;;;;;;;;4186107;28;20041;-39
2022/01/14 08:09:18;;;;;;;0.28;0.20;;;;;;;;;;4192461;28;20105;-40
2022/01/14 08:11:19;;;;;;;1.55;0.10;;;;;;;;;;4179218;28;20084;-41
2022/01/14 08:13:20;;;;;;;0.32;0.10;;;;;;;;;;4183550;28;20142;-42
2022/01/14 08:15:21;;;;;;;0.60;0.20;;;;;;;;;;4188307;28;20061;-39
2022/01/14 08:17:22;;;;;;;1.58;0.20;;;;;;;;;;4186862;28;20121;-40
2022/01/14 08:19:23;;;;;;;0.77;0.32;;;;;;;;;;4184473;28;20045;-41
2022/01/14 08:21:24;;;;;;;1.92;0.10;;;;;;;;;;4181139;28;20109;-42
2022/01/14 08:23:25;;;;;;;2.75;0.30;;;;;;;;;;4184316;28;20063;-42
2022/01/14 08:25:26;;;;;;;0.30;0.08;;;;;;;;;;4186116;28;20057;-40
2022/01/14 08:27:27;;;;;;;0.70;0.20;;;;;;;;;;4178760;28;20059;-42
2022/01/14 08:29:28;;;;;;;1.30;0.30;;;;;;;;;;4182079;28;20072;-38
2022/01/14 08:31:29;;;;;;;1.27;0.10;;;;;;;;;;4181966;28;20437;-41
2022/01/14 08:33:31;;;;;;;3.20;0.20;;;;;;;;;;4181469;28;20106;-41
2022/01/14 08:35:32;;;;;;;0.52;0.17;;;;;;;;;;4182248;28;20673;-41
2022/01/14 08:37:32;;;;;;;0.40;0.13;;;;;;;;;;4181226;28;20109;-39
2022/01/14 08:39:33;;;;;;;1.98;0.20;;;;;;;;;;4178990;28;20132;-36
2022/01/14 08:41:34;;;;;;;0.20;0.10;;;;;;;;;;4187567;28;20048;-43
2022/01/14 08:43:35;;;;;;;0.57;0.10;;;;;;;;;;4186590;28;20127;-42
2022/01/14 08:45:37;;;;;;;1.20;0.30;;;;;;;;;;4189282;28;20065;-38
2022/01/14 08:47:38;;;;;;;1.15;0.20;;;;;;;;;;4186712;28;20685;-39
2022/01/14 08:49:39;;;;;;;2.55;0.30;;;;;;;;;;4183882;28;20079;-41
2022/01/14 08:51:40;;;;;;;0.40;0.10;;;;;;;;;;4185098;28;20060;-41
2022/01/14 08:53:41;;;;;;;0.25;0.10;;;;;;;;;;4183381;28;20060;-42
2022/01/14 08:55:42;;;;;;;1.00;0.30;;;;;;;;;;4183599;28;20141;-41
2022/01/14 08:57:44;;;;;;;0.50;0.30;;;;;;;;;;4187387;28;20102;-38
2022/01/14 08:59:45;;;;;;;0.75;0.40;;;;;;;;;;4185742;28;20124;-40
2022/01/14 09:01:46;;;;;;;0.30;0.20;;;;;;;;;;4185806;28;20480;-40
2022/01/14 09:03:47;;;;;;;2.20;0.22;;;;;;;;;;4183942;28;20079;-42
2022/01/14 09:05:48;;;;;;;0.30;0.10;;;;;;;;;;4183869;28;20156;-39
2022/01/14 09:07:50;;;;;;;0.98;0.22;;;;;;;;;;4187863;28;20091;-42
2022/01/14 09:09:54;;;;;;;0.38;0.20;;;;;;;;;;4187499;28;20061;-39
2022/01/14 09:11:55;;;;;;;2.53;0.30;;;;;;;;;;4186510;28;20140;-41
2022/01/14 09:13:56;;;;;;;2.22;0.30;;;;;;;;;;4184307;28;20040;-39
2022/01/14 09:15:57;;;;;;;0.85;0.25;;;;;;;;;;4184432;28;20500;-40
2022/01/14 09:17:58;;;;;;;0.95;0.20;;;;;;;;;;4188404;28;20545;-40
2022/01/14 09:20:02;;;;;;;1.95;0.20;;;;;;;;;;4187432;28;20436;-41
2022/01/14 09:22:03;;;;;;;0.38;0.20;;;;;;;;;;4187229;28;20110;-40
2022/01/14 09:24:04;;;;;;;0.68;0.22;;;;;;;;;;4186685;28;20516;-40
2022/01/14 09:26:05;;;;;;;2.20;0.20;;;;;;;;;;4187348;28;20090;-37
2022/01/14 09:28:06;;;;;;;0.82;0.20;;;;;;;;;;4189711;28;20080;-39
2022/01/14 09:30:07;;;;;;;2.70;0.50;;;;;;;;;;4189344;28;20056;-42
2022/01/14 09:32:09;;;;;;;1.48;0.40;;;;;;;;;;4189129;28;20098;-38
2022/01/14 09:34:10;;;;;;;0.60;0.10;;;;;;;;;;4186773;28;20056;-39
2022/01/14 09:36:12;;;;;;;0.77;0.20;;;;;;;;;;4183787;28;20390;-36
2022/01/14 09:38:13;;;;;;;1.38;0.20;;;;;;;;;;4182455;28;20108;-39
2022/01/14 09:40:16;;;;;;;1.35;0.30;;;;;;;;;;4182336;28;20067;-40
2022/01/14 09:42:17;;;;;;;1.27;0.47;;;;;;;;;;4186862;28;20052;-39
2022/01/14 09:44:18;;;;;;;0.55;0.15;;;;;;;;;;4188285;28;20051;-40
2022/01/14 09:46:19;;;;;;;1.27;0.20;;;;;;;;;;4183439;28;20487;-37
2022/01/14 09:48:21;;;;;;;0.90;0.35;;;;;;;;;;4185880;28;20048;-39
2022/01/14 09:50:23;;;;;;;1.00;0.45;;;;;;;;;;4183278;28;20504;-39
2022/01/14 09:52:24;;;;;;;1.15;0.30;;;;;;;;;;4183215;28;20063;-38
2022/01/14 09:54:26;;;;;;;2.38;0.63;;;;;;;;;;4187381;28;20048;-40
2022/01/14 09:56:27;;;;;;;1.55;0.55;;;;;;;;;;4180942;28;20067;-39
2022/01/14 09:58:35;;;;;;;1.27;0.32;;;;;;;;;;4181627;28;20053;-38
2022/01/14 10:00:37;;;;;;;0.98;0.40;;;;;;;;;;4181734;28;20056;-36
2022/01/14 10:02:40;;;;;;;1.45;0.20;;;;;;;;;;4184014;28;20130;-38
2022/01/14 10:04:41;;;;;;;0.80;0.20;;;;;;;;;;4183855;28;20382;-39
2022/01/14 10:06:44;;;;;;;2.33;0.40;;;;;;;;;;4184156;28;20060;-40
2022/01/14 10:08:45;;;;;;;1.05;0.20;;;;;;;;;;4187924;28;20045;-35
2022/01/14 10:10:48;;;;;;;1.80;0.40;;;;;;;;;;4188621;28;20844;-39
2022/01/14 10:12:49;;;;;;;1.10;0.38;;;;;;;;;;4188719;28;20040;-36
2022/01/14 10:14:53;;;;;;;2.38;0.17;;;;;;;;;;4191281;28;20480;-39
2022/01/14 10:16:54;;;;;;;0.70;0.20;;;;;;;;;;4190392;28;20040;-38
2022/01/14 10:18:55;;;;;;;0.47;0.38;;;;;;;;;;4191720;28;20044;-36
2022/01/14 10:21:01;;;;;;;0.38;0.20;;;;;;;;;;4190824;28;20075;-36
2022/01/14 10:23:02;;;;;;;0.73;0.22;;;;;;;;;;4190076;28;20044;-35
2022/01/14 10:25:06;;;;;;;0.95;0.30;;;;;;;;;;4188678;28;20044;-39
2022/01/14 10:27:07;;;;;;;2.63;0.28;;;;;;;;;;4191939;28;20041;-35
2022/01/14 10:29:08;;;;;;;0.98;0.30;;;;;;;;;;4192011;28;20106;-40
2022/01/14 10:31:09;;;;;;;0.43;0.20;;;;;;;;;;4187839;28;20044;-37
2022/01/14 10:33:12;;;;;;;0.30;0.20;;;;;;;;;;4190297;28;20128;-38
2022/01/14 10:35:15;;;;;;;0.75;0.10;;;;;;;;;;4186960;28;20094;-40
2022/01/14 10:37:16;;;;;;;0.35;0.20;;;;;;;;;;4186349;28;20454;-40
2022/01/14 10:39:22;;;;;;;0.55;0.20;;;;;;;;;;4187100;28;20052;-43
2022/01/14 10:41:27;;;;;;;0.20;0.10;;;;;;;;;;4188948;28;20082;-37
2022/01/14 10:43:33;;;;;;;0.47;0.17;;;;;;;;;;4192434;28;20481;-37
2022/01/14 10:45:34;;;;;;;0.50;0.20;;;;;;;;;;4194098;28;20094;-38
2022/01/14 10:47:35;;;;;;;0.77;0.22;;;;;;;;;;4191427;28;20048;-38
2022/01/14 10:49:37;;;;;;;0.60;0.20;;;;;;;;;;4189442;28;20493;-35
2022/01/14 10:51:38;;;;;;;0.85;0.20;;;;;;;;;;4190783;28;20048;-40
2022/01/14 10:53:59;;;;;;;1.00;0.20;;;;;;;;;;4188438;28;20826;-38
2022/01/14 10:56:03;;;;;;;0.88;0.25;;;;;;;;;;4186551;28;20044;-37
2022/01/14 10:58:08;;;;;;;0.60;0.20;;;;;;;;;;4189614;28;20117;-39
2022/01/14 11:00:14;;;;;;;0.45;0.20;;;;;;;;;;4188851;28;20049;-40
2022/01/14 11:02:31;;;;;;;0.55;0.17;;;;;;;;;;4187944;28;20052;-38
2022/01/14 11:04:33;;;;;;;0.22;0.10;;;;;;;;;;4187405;28;20699;-40
2022/01/14 11:06:40;;;;;;;0.65;0.30;;;;;;;;;;4184421;28;20044;-37
2022/01/14 11:08:41;;;;;;;0.52;0.10;;;;;;;;;;4184754;28;20049;-39
2022/01/14 11:10:43;;;;;;;0.20;0.10;;;;;;;;;;4180038;28;20055;-42
2022/01/14 11:12:45;;;;;;;0.75;0.20;;;;;;;;;;4184935;28;20386;-38
2022/01/14 11:14:46;;;;;;;0.25;0.10;;;;;;;;;;4183813;28;20055;-39
2022/01/14 11:16:47;;;;;;;0.95;0.20;;;;;;;;;;4183495;28;20056;-37
2022/01/14 11:18:48;;;;;;;0.65;0.20;;;;;;;;;;4188243;28;20072;-39
2022/01/14 11:23:15;;;;;;;0.45;0.20;;;;;;;;;;4185651;28;20060;-37
2022/01/14 11:25:16;;;;;;;0.50;0.20;;;;;;;;;;4184264;28;20053;-34
2022/01/14 11:27:18;;;;;;;0.20;0.00;;;;;;;;;;4183605;28;20044;-36
2022/01/14 11:29:20;;;;;;;0.15;0.15;;;;;;;;;;4188028;28;20071;-38
2022/01/14 11:31:24;;;;;;;1.13;0.20;;;;;;;;;;4181846;28;20328;-34
2022/01/14 11:33:42;;;;;;;0.10;0.03;;;;;;;;;;4183892;28;20488;-35
2022/01/14 11:35:52;;;;;;;0.50;0.17;;;;;;;;;;4182413;28;20078;-33
2022/01/14 11:37:53;;;;;;;1.50;0.30;;;;;;;;;;4183227;28;20048;-38
2022/01/14 11:39:55;;;;;;;0.95;0.30;;;;;;;;;;4187280;28;20060;-33
2022/01/14 11:42:01;;;;;;;0.90;0.20;;;;;;;;;;4185727;28;20056;-34
2022/01/14 11:44:07;;;;;;;1.02;0.30;;;;;;;;;;4184597;28;20053;-35
2022/01/14 11:46:11;;;;;;;0.43;0.20;;;;;;;;;;4185864;28;20159;-37
2022/01/14 11:48:33;;;;;;;0.60;0.30;;;;;;;;;;4186800;28;20065;-38
2022/01/14 11:50:37;;;;;;;0.95;0.30;;;;;;;;;;4186336;28;20064;-38
2022/01/14 11:52:42;;;;;;;2.10;0.40;;;;;;;;;;4185543;28;20053;-35
2022/01/14 11:54:45;;;;;;;1.10;0.20;;;;;;;;;;4183551;28;20045;-35
2022/01/14 11:56:46;;;;;;;0.22;0.10;;;;;;;;;;4182106;28;21262;-34
2022/01/14 11:58:47;;;;;;;0.77;0.38;;;;;;;;;;4181806;28;20700;-37
2022/01/14 12:00:48;;;;;;;1.27;0.20;;;;;;;;;;4185164;28;20095;-35
2022/01/14 12:02:49;;;;;;;0.82;0.30;;;;;;;;;;4186582;28;20098;-42
2022/01/14 12:05:06;;;;;;;1.02;0.28;;;;;;;;;;4180601;28;20052;-37
2022/01/14 12:07:07;;;;;;;1.33;0.30;;;;;;;;;;4182563;28;20154;-40
2022/01/14 12:09:08;;;;;;;1.35;0.60;;;;;;;;;;4179839;28;20090;-39
2022/01/14 12:11:09;;;;;;;1.83;0.40;;;;;;;;;;4182007;28;21298;-38
2022/01/14 12:13:43;;;;;;;0.57;0.25;;;;;;;;;;4187590;28;20083;-41
2022/01/14 12:15:54;;;;;;;0.65;0.20;;;;;;;;;;4184715;28;20052;-37
2022/01/14 12:17:55;;;;;;;1.00;0.40;;;;;;;;;;4185762;28;20061;-36
2022/01/14 12:19:56;;;;;;;0.77;0.20;;;;;;;;;;4179844;28;20503;-33
2022/01/14 12:21:57;;;;;;;2.72;0.30;;;;;;;;;;4182178;28;20130;-38
2022/01/14 12:23:59;;;;;;;0.90;0.38;;;;;;;;;;4182662;28;20053;-36
2022/01/14 12:26:13;;;;;;;0.50;0.30;;;;;;;;;;4183549;28;20553;-35
2022/01/14 12:28:18;;;;;;;1.08;0.20;;;;;;;;;;4176996;28;20056;-37
2022/01/14 12:30:23;;;;;;;2.03;0.30;;;;;;;;;;4182509;28;20110;-38
2022/01/14 12:32:32;;;;;;;1.20;0.40;;;;;;;;;;4186721;28;20106;-37
2022/01/14 12:34:34;;;;;;;1.38;0.30;;;;;;;;;;4187920;28;20052;-36
2022/01/14 12:36:35;;;;;;;1.20;0.30;;;;;;;;;;4179787;28;20048;-35
2022/01/14 12:38:38;;;;;;;0.75;0.20;;;;;;;;;;4186433;28;20056;-39
2022/01/14 12:40:40;;;;;;;1.95;0.20;;;;;;;;;;4187107;28;20109;-39
2022/01/14 12:42:47;;;;;;;0.88;0.30;;;;;;;;;;4187313;28;20045;-37